Wan I Gan, Montana
Current Conditions -  °F | °C
As of 1:53 PM on Friday 24 Oct 2014 (Local Time) from KLVM Reporting Station
Overcast Overcast  
Wind Chill: 56°   Ceiling: 7000
Heat Index: 56°   Visibility: 10mi
Dew Point: 39°   Wind: 9mph
Humidity: 53%   Direction: 310°NW
Pressure: 30.06"   Gusts: NA
Location:  45.4304°N, 110.521°W
Report Text: KLVM 241953Z AUTO 31008KT 10SM OVC070 13/04 A3006 RMK AO2 SLP152 T01330039
Loading
Personal Weather Stations






























Interactive Weather Map
Tropical Storm Tracking
New forecast layout! Learn more

10-Day Weather Forecast

Advertisements
Track Severe Weather on mobile